Time;durP1;ratioP1;P1;durP2;ratioP2;P2;SDS_P1;SDS_P2;PMS_P1;PMS_P2;Temp;Humidity;BMP_temperature;BMP_pressure;BME280_temperature;BME280_humidity;BME280_pressure;Samples;Min_cycle;Max_cycle;Signal;HPM_P1;HPM_P2
2024/01/28 00:01:44;;;;;;;16.55;5.53;;;;;;;;;;5010418;28;20021;-58
2024/01/28 00:04:10;;;;;;;17.67;6.47;;;;;;;;;;5010662;28;20030;-57
2024/01/28 00:06:36;;;;;;;13.45;5.03;;;;;;;;;;5009609;28;20029;-57
2024/01/28 00:09:02;;;;;;;14.30;5.50;;;;;;;;;;5010096;28;20022;-57
2024/01/28 00:11:28;;;;;;;32.55;7.78;;;;;;;;;;5010485;28;20022;-58
2024/01/28 00:13:54;;;;;;;27.92;6.32;;;;;;;;;;5010366;28;20094;-55
2024/01/28 00:16:20;;;;;;;19.10;5.75;;;;;;;;;;5009700;28;20112;-59
2024/01/28 00:18:46;;;;;;;22.42;5.68;;;;;;;;;;5011138;28;20101;-58
2024/01/28 00:21:12;;;;;;;20.67;5.93;;;;;;;;;;5012773;28;20473;-59
2024/01/28 00:23:38;;;;;;;23.00;5.88;;;;;;;;;;5010883;28;20049;-59
2024/01/28 00:26:04;;;;;;;15.52;6.38;;;;;;;;;;5009401;28;20029;-60
2024/01/28 00:28:30;;;;;;;16.42;6.38;;;;;;;;;;5010402;28;20025;-57
2024/01/28 00:30:56;;;;;;;15.35;4.63;;;;;;;;;;5010912;28;20026;-58
2024/01/28 00:33:22;;;;;;;17.13;5.72;;;;;;;;;;5011048;28;20030;-57
2024/01/28 00:35:48;;;;;;;24.75;5.82;;;;;;;;;;5010398;28;20523;-60
2024/01/28 00:38:14;;;;;;;16.85;5.68;;;;;;;;;;5010266;28;20503;-60
2024/01/28 00:40:40;;;;;;;18.63;5.95;;;;;;;;;;5009512;28;20104;-59
2024/01/28 00:43:06;;;;;;;23.20;6.70;;;;;;;;;;5010941;28;20034;-60
2024/01/28 00:45:32;;;;;;;27.33;6.28;;;;;;;;;;5010281;28;20022;-59
2024/01/28 00:47:58;;;;;;;14.27;5.70;;;;;;;;;;5009827;28;20508;-60
2024/01/28 00:50:24;;;;;;;18.00;4.63;;;;;;;;;;5010538;28;20057;-60
2024/01/28 00:52:50;;;;;;;20.60;5.43;;;;;;;;;;5010609;28;20053;-60
2024/01/28 00:55:16;;;;;;;19.55;5.53;;;;;;;;;;5009457;28;20026;-59
2024/01/28 00:57:43;;;;;;;16.25;6.90;;;;;;;;;;5010144;28;20080;-60
2024/01/28 01:00:09;;;;;;;13.27;5.47;;;;;;;;;;5009653;28;20084;-59
2024/01/28 01:02:35;;;;;;;17.90;5.90;;;;;;;;;;5010594;28;20072;-57
2024/01/28 01:05:01;;;;;;;19.80;6.07;;;;;;;;;;5011038;28;20034;-59
2024/01/28 01:07:27;;;;;;;17.20;5.30;;;;;;;;;;5011578;28;20045;-59
2024/01/28 01:09:53;;;;;;;13.27;5.10;;;;;;;;;;5012757;28;20036;-60
2024/01/28 01:12:19;;;;;;;23.73;5.90;;;;;;;;;;5008841;28;20026;-59
2024/01/28 01:14:45;;;;;;;14.20;5.25;;;;;;;;;;5010383;28;20415;-59
2024/01/28 01:17:11;;;;;;;17.02;5.57;;;;;;;;;;5009306;28;20034;-58
2024/01/28 01:19:37;;;;;;;21.17;6.05;;;;;;;;;;5011896;28;20029;-58
2024/01/28 01:22:03;;;;;;;17.75;5.22;;;;;;;;;;5010321;28;20480;-58
2024/01/28 01:24:29;;;;;;;16.92;6.32;;;;;;;;;;5010045;28;20026;-58
2024/01/28 01:26:55;;;;;;;21.02;5.38;;;;;;;;;;5005902;28;20168;-59
2024/01/28 01:29:21;;;;;;;17.40;5.05;;;;;;;;;;5009992;28;20536;-59
2024/01/28 01:31:48;;;;;;;27.75;6.20;;;;;;;;;;5008979;28;20038;-61
2024/01/28 01:34:14;;;;;;;15.73;5.18;;;;;;;;;;5013591;28;20484;-59
2024/01/28 01:36:43;;;;;;;18.35;5.35;;;;;;;;;;5010096;28;20018;-60
2024/01/28 01:39:09;;;;;;;22.38;5.18;;;;;;;;;;5016689;28;20096;-59
2024/01/28 01:41:35;;;;;;;16.75;5.93;;;;;;;;;;5012913;28;20026;-60
2024/01/28 01:44:01;;;;;;;13.85;4.88;;;;;;;;;;5013400;28;20052;-60
2024/01/28 01:46:27;;;;;;;21.10;6.32;;;;;;;;;;5013078;28;20022;-59
2024/01/28 01:48:54;;;;;;;11.77;5.25;;;;;;;;;;5013644;28;20084;-60
2024/01/28 01:51:21;;;;;;;15.02;5.13;;;;;;;;;;5015411;28;20381;-59
2024/01/28 01:53:47;;;;;;;16.38;5.18;;;;;;;;;;5026441;28;20041;-60
2024/01/28 01:56:14;;;;;;;18.45;4.80;;;;;;;;;;5012943;28;20029;-59
2024/01/28 01:58:40;;;;;;;13.73;4.70;;;;;;;;;;5012698;28;20444;-57
2024/01/28 02:01:06;;;;;;;18.73;5.57;;;;;;;;;;5013263;28;20068;-60
2024/01/28 02:03:33;;;;;;;11.95;4.95;;;;;;;;;;5013496;28;20400;-60
2024/01/28 02:05:59;;;;;;;20.75;5.82;;;;;;;;;;5013029;28;20026;-59
2024/01/28 02:08:26;;;;;;;20.55;5.00;;;;;;;;;;5012552;28;20392;-57
2024/01/28 02:10:52;;;;;;;19.55;6.15;;;;;;;;;;5012872;28;20025;-59
2024/01/28 02:13:18;;;;;;;20.13;5.38;;;;;;;;;;5011738;28;20090;-58
2024/01/28 02:15:44;;;;;;;18.40;4.80;;;;;;;;;;5012847;28;20399;-58
2024/01/28 02:18:10;;;;;;;15.73;4.95;;;;;;;;;;5012424;28;20408;-54
2024/01/28 02:20:36;;;;;;;20.70;5.15;;;;;;;;;;5013139;28;20058;-58
2024/01/28 02:23:04;;;;;;;19.52;5.85;;;;;;;;;;5012877;28;20377;-59
2024/01/28 02:25:29;;;;;;;25.63;7.05;;;;;;;;;;5011925;28;20514;-59
2024/01/28 02:27:55;;;;;;;19.67;5.72;;;;;;;;;;5011593;28;20034;-59
2024/01/28 02:30:21;;;;;;;21.58;4.78;;;;;;;;;;5014746;28;20028;-57
2024/01/28 02:32:48;;;;;;;20.88;6.38;;;;;;;;;;5013418;28;20061;-60
2024/01/28 02:35:15;;;;;;;20.70;5.78;;;;;;;;;;5017644;28;20055;-56
2024/01/28 02:37:41;;;;;;;16.40;4.63;;;;;;;;;;5014305;28;20030;-59
2024/01/28 02:40:07;;;;;;;17.20;5.82;;;;;;;;;;5028027;28;20032;-59
2024/01/28 02:42:33;;;;;;;12.15;4.55;;;;;;;;;;5012461;28;20025;-59
2024/01/28 02:44:59;;;;;;;16.90;4.85;;;;;;;;;;5011337;28;20468;-58
2024/01/28 02:47:25;;;;;;;17.48;5.30;;;;;;;;;;5014203;28;20030;-60
2024/01/28 02:49:51;;;;;;;23.52;5.15;;;;;;;;;;5006822;28;20025;-59
2024/01/28 02:52:17;;;;;;;12.15;4.40;;;;;;;;;;5010777;28;20029;-59
2024/01/28 02:54:43;;;;;;;14.65;4.95;;;;;;;;;;5011401;28;20018;-55
2024/01/28 02:57:09;;;;;;;9.93;4.30;;;;;;;;;;5019933;28;20232;-60
2024/01/28 02:59:35;;;;;;;16.70;5.55;;;;;;;;;;5012111;28;20025;-60
2024/01/28 03:02:01;;;;;;;16.73;4.57;;;;;;;;;;5011949;28;20029;-59
2024/01/28 03:04:27;;;;;;;14.80;4.68;;;;;;;;;;5011564;28;20605;-62
2024/01/28 03:06:53;;;;;;;24.10;4.80;;;;;;;;;;5011583;28;20022;-59
2024/01/28 03:09:19;;;;;;;18.05;5.53;;;;;;;;;;5011664;28;20585;-61
2024/01/28 03:11:45;;;;;;;21.83;4.97;;;;;;;;;;5015029;28;20026;-59
2024/01/28 03:14:11;;;;;;;13.70;4.95;;;;;;;;;;5012013;28;20026;-61
2024/01/28 03:16:37;;;;;;;14.43;4.38;;;;;;;;;;5009327;28;20444;-62
2024/01/28 03:19:03;;;;;;;12.85;4.43;;;;;;;;;;5011531;28;20457;-59
2024/01/28 03:21:29;;;;;;;16.23;4.82;;;;;;;;;;5011405;28;20112;-59
2024/01/28 03:23:56;;;;;;;15.32;5.03;;;;;;;;;;5011855;28;20537;-58
2024/01/28 03:26:22;;;;;;;21.50;5.15;;;;;;;;;;5010888;28;20025;-60
2024/01/28 03:28:48;;;;;;;15.88;4.30;;;;;;;;;;5011870;28;20477;-61
2024/01/28 03:31:14;;;;;;;26.58;4.93;;;;;;;;;;5010072;28;20542;-61
2024/01/28 03:33:40;;;;;;;19.05;4.78;;;;;;;;;;5011311;28;20048;-59
2024/01/28 03:36:06;;;;;;;12.90;5.00;;;;;;;;;;5011291;28;20018;-60
2024/01/28 03:38:32;;;;;;;16.80;4.95;;;;;;;;;;5009993;28;20041;-61
2024/01/28 03:40:58;;;;;;;15.63;4.38;;;;;;;;;;5010880;28;20389;-59
2024/01/28 03:43:24;;;;;;;22.65;4.25;;;;;;;;;;5011927;28;20519;-58
2024/01/28 03:45:50;;;;;;;16.02;4.90;;;;;;;;;;5009793;28;20518;-58
2024/01/28 03:48:16;;;;;;;14.02;4.70;;;;;;;;;;5011366;28;20417;-60
2024/01/28 03:50:42;;;;;;;18.15;4.25;;;;;;;;;;5010999;28;20388;-57
2024/01/28 03:53:08;;;;;;;14.23;4.28;;;;;;;;;;5010942;28;20476;-56
2024/01/28 03:55:33;;;;;;;13.60;4.43;;;;;;;;;;5010634;28;20026;-58
2024/01/28 03:57:59;;;;;;;14.40;4.40;;;;;;;;;;5010754;28;20026;-58
2024/01/28 04:00:28;;;;;;;16.00;5.28;;;;;;;;;;5009436;28;20061;-59
2024/01/28 04:02:56;;;;;;;11.52;4.40;;;;;;;;;;5009796;28;20029;-56
2024/01/28 04:05:22;;;;;;;19.88;4.63;;;;;;;;;;5010311;28;20025;-57
2024/01/28 04:07:48;;;;;;;17.38;4.63;;;;;;;;;;5010150;28;20473;-58
2024/01/28 04:10:15;;;;;;;12.32;4.57;;;;;;;;;;5010741;28;20049;-56
2024/01/28 04:12:41;;;;;;;12.98;4.03;;;;;;;;;;5010573;28;20018;-57
2024/01/28 04:15:07;;;;;;;15.15;5.07;;;;;;;;;;5010293;28;20503;-57
2024/01/28 04:17:33;;;;;;;17.08;4.93;;;;;;;;;;5009129;28;20026;-60
2024/01/28 04:19:59;;;;;;;13.18;4.65;;;;;;;;;;5010490;28;20022;-55
2024/01/28 04:22:26;;;;;;;17.23;4.53;;;;;;;;;;5010155;28;20026;-56
2024/01/28 04:24:52;;;;;;;21.20;5.70;;;;;;;;;;5010036;28;20114;-58
2024/01/28 04:27:18;;;;;;;13.93;4.55;;;;;;;;;;5010353;28;20108;-58
2024/01/28 04:29:44;;;;;;;12.88;5.47;;;;;;;;;;5010421;28;20025;-59
2024/01/28 04:32:10;;;;;;;15.68;4.85;;;;;;;;;;5009981;28;20628;-56
2024/01/28 04:34:36;;;;;;;19.50;4.97;;;;;;;;;;5009451;28;20480;-58
2024/01/28 04:37:02;;;;;;;12.63;4.43;;;;;;;;;;5010042;28;20026;-60
2024/01/28 04:39:28;;;;;;;21.75;4.35;;;;;;;;;;5009979;28;20155;-57
2024/01/28 04:41:54;;;;;;;14.52;4.50;;;;;;;;;;5009794;28;20022;-60
2024/01/28 04:44:21;;;;;;;16.30;4.72;;;;;;;;;;5010062;28;20392;-60
2024/01/28 04:46:48;;;;;;;14.88;4.20;;;;;;;;;;5010239;28;20140;-59
2024/01/28 04:49:14;;;;;;;12.02;4.65;;;;;;;;;;5010213;28;20377;-60
2024/01/28 04:51:41;;;;;;;16.95;5.43;;;;;;;;;;5009087;28;20029;-59
2024/01/28 04:54:08;;;;;;;16.20;4.38;;;;;;;;;;5010128;28;20479;-59
2024/01/28 04:56:33;;;;;;;11.77;4.30;;;;;;;;;;5010061;28;20021;-59
2024/01/28 04:59:02;;;;;;;11.05;4.05;;;;;;;;;;5010484;28;20018;-59
2024/01/28 05:01:28;;;;;;;17.27;4.28;;;;;;;;;;5010394;28;20034;-59
2024/01/28 05:03:54;;;;;;;19.20;4.57;;;;;;;;;;5010544;28;20029;-59
2024/01/28 05:06:20;;;;;;;9.25;4.00;;;;;;;;;;5010895;28;20514;-60
2024/01/28 05:08:46;;;;;;;14.45;5.05;;;;;;;;;;5010180;28;20026;-58
2024/01/28 05:11:12;;;;;;;9.25;3.88;;;;;;;;;;5007734;28;20080;-57
2024/01/28 05:13:38;;;;;;;10.63;4.50;;;;;;;;;;5013290;28;20033;-58
2024/01/28 05:16:04;;;;;;;13.35;4.43;;;;;;;;;;5013870;28;20057;-60
2024/01/28 05:18:30;;;;;;;11.40;4.03;;;;;;;;;;5014192;28;20034;-57
2024/01/28 05:20:56;;;;;;;9.68;4.32;;;;;;;;;;5013880;28;20092;-59
2024/01/28 05:23:22;;;;;;;17.27;4.65;;;;;;;;;;5013663;28;20484;-57
2024/01/28 05:25:48;;;;;;;17.92;4.10;;;;;;;;;;5010877;28;20037;-60
2024/01/28 05:28:14;;;;;;;19.88;4.35;;;;;;;;;;5012917;28;20026;-59
2024/01/28 05:30:40;;;;;;;19.08;4.93;;;;;;;;;;5013485;28;20021;-60
2024/01/28 05:33:06;;;;;;;13.57;5.13;;;;;;;;;;5014005;28;20504;-57
2024/01/28 05:35:32;;;;;;;18.63;5.25;;;;;;;;;;5013356;28;20531;-56
2024/01/28 05:37:59;;;;;;;12.90;4.43;;;;;;;;;;5013389;28;20032;-56
2024/01/28 05:40:26;;;;;;;11.93;4.50;;;;;;;;;;5028852;28;20054;-59
2024/01/28 05:42:52;;;;;;;11.95;3.55;;;;;;;;;;5012693;28;20097;-58
2024/01/28 05:45:18;;;;;;;19.00;3.92;;;;;;;;;;5012080;28;20411;-56
2024/01/28 05:47:44;;;;;;;11.50;4.20;;;;;;;;;;5012271;28;20052;-58
2024/01/28 05:50:10;;;;;;;13.35;4.20;;;;;;;;;;5013386;28;20115;-58
2024/01/28 05:52:36;;;;;;;16.85;4.20;;;;;;;;;;5012698;28;20030;-58
2024/01/28 05:55:02;;;;;;;18.70;3.45;;;;;;;;;;5013307;28;20033;-59
2024/01/28 05:57:28;;;;;;;15.55;4.47;;;;;;;;;;5012871;28;20034;-58
2024/01/28 05:59:54;;;;;;;10.93;3.40;;;;;;;;;;5013103;28;20032;-59
2024/01/28 06:02:20;;;;;;;18.20;4.05;;;;;;;;;;5011890;28;20038;-61
2024/01/28 06:04:46;;;;;;;18.00;4.25;;;;;;;;;;5012673;28;20030;-61
2024/01/28 06:07:12;;;;;;;23.65;4.90;;;;;;;;;;5011585;28;20030;-60
2024/01/28 06:09:38;;;;;;;10.23;3.95;;;;;;;;;;5012860;28;20448;-59
2024/01/28 06:12:04;;;;;;;16.63;4.63;;;;;;;;;;5012779;28;20026;-59
2024/01/28 06:14:30;;;;;;;10.77;4.13;;;;;;;;;;5011564;28;20449;-58
2024/01/28 06:16:56;;;;;;;13.82;4.88;;;;;;;;;;5012469;28;20105;-59
2024/01/28 06:19:22;;;;;;;12.77;3.88;;;;;;;;;;5011730;28;20048;-61
2024/01/28 06:21:48;;;;;;;14.00;3.45;;;;;;;;;;5012803;28;20460;-57
2024/01/28 06:24:14;;;;;;;14.10;3.65;;;;;;;;;;5012264;28;20022;-61
2024/01/28 06:26:40;;;;;;;8.20;3.63;;;;;;;;;;5012073;28;20100;-57
2024/01/28 06:29:06;;;;;;;14.60;3.63;;;;;;;;;;5012161;28;20057;-60
2024/01/28 06:31:32;;;;;;;19.23;4.13;;;;;;;;;;5012263;28;20018;-59
2024/01/28 06:33:58;;;;;;;17.42;4.70;;;;;;;;;;5012776;28;20029;-60
2024/01/28 06:36:24;;;;;;;22.85;4.40;;;;;;;;;;5011598;28;20029;-61
2024/01/28 06:38:50;;;;;;;12.88;3.97;;;;;;;;;;5012760;28;20022;-60
2024/01/28 06:41:16;;;;;;;11.95;3.47;;;;;;;;;;5012361;28;20480;-57
2024/01/28 06:43:42;;;;;;;14.15;3.83;;;;;;;;;;5010526;28;20512;-58
2024/01/28 06:46:08;;;;;;;14.85;3.90;;;;;;;;;;5011734;28;20045;-60
2024/01/28 06:48:34;;;;;;;14.13;3.95;;;;;;;;;;5012108;28;20504;-57
2024/01/28 06:51:03;;;;;;;15.73;4.20;;;;;;;;;;5013123;28;20014;-57
2024/01/28 06:53:29;;;;;;;13.90;3.53;;;;;;;;;;5011391;28;20392;-60
2024/01/28 06:55:55;;;;;;;8.25;3.22;;;;;;;;;;5011779;28;20025;-56
2024/01/28 06:58:21;;;;;;;19.42;4.55;;;;;;;;;;5011469;28;20057;-59
2024/01/28 07:00:47;;;;;;;9.27;3.78;;;;;;;;;;5011193;28;20088;-61
2024/01/28 07:03:13;;;;;;;14.68;3.85;;;;;;;;;;5011514;28;20117;-60
2024/01/28 07:05:39;;;;;;;17.73;4.32;;;;;;;;;;5011519;28;20022;-57
2024/01/28 07:08:06;;;;;;;9.98;4.30;;;;;;;;;;5011495;28;20538;-58
2024/01/28 07:10:32;;;;;;;10.57;3.40;;;;;;;;;;5011667;28;20087;-56
2024/01/28 07:12:58;;;;;;;13.23;4.13;;;;;;;;;;5010558;28;20026;-59
2024/01/28 07:15:24;;;;;;;12.80;4.20;;;;;;;;;;5011228;28;20029;-60
2024/01/28 07:17:50;;;;;;;17.38;3.92;;;;;;;;;;5010424;28;20037;-58
2024/01/28 07:20:16;;;;;;;15.07;3.47;;;;;;;;;;5012466;28;20079;-61
2024/01/28 07:22:43;;;;;;;13.70;5.78;;;;;;;;;;5011297;28;20029;-59
2024/01/28 07:25:09;;;;;;;10.70;3.45;;;;;;;;;;5012195;28;20476;-57
2024/01/28 07:27:35;;;;;;;10.43;3.45;;;;;;;;;;5011123;28;20073;-60
2024/01/28 07:30:01;;;;;;;12.52;3.70;;;;;;;;;;5011364;28;20499;-62
2024/01/28 07:32:27;;;;;;;14.10;5.38;;;;;;;;;;5010305;28;20056;-61
2024/01/28 07:34:52;;;;;;;16.00;4.88;;;;;;;;;;5009258;28;20129;-61
2024/01/28 07:37:18;;;;;;;17.15;4.68;;;;;;;;;;5012011;28;20030;-57
2024/01/28 07:39:44;;;;;;;15.18;5.78;;;;;;;;;;5011084;28;20026;-59
2024/01/28 07:42:10;;;;;;;19.20;4.68;;;;;;;;;;5011061;28;20030;-57
2024/01/28 07:44:36;;;;;;;9.57;3.58;;;;;;;;;;5010884;28;20101;-59
2024/01/28 07:47:04;;;;;;;9.25;3.53;;;;;;;;;;5010856;28;20041;-60
2024/01/28 07:49:30;;;;;;;16.73;4.00;;;;;;;;;;5026177;28;20108;-60
2024/01/28 07:51:56;;;;;;;12.90;3.35;;;;;;;;;;5009146;28;20176;-59
2024/01/28 07:54:22;;;;;;;10.00;3.53;;;;;;;;;;5010880;28;20029;-59
2024/01/28 07:56:48;;;;;;;9.15;4.03;;;;;;;;;;5009373;28;20479;-60
2024/01/28 07:59:14;;;;;;;14.30;3.70;;;;;;;;;;5010823;28;20036;-58
2024/01/28 08:01:40;;;;;;;19.65;3.90;;;;;;;;;;5005815;28;20144;-59
2024/01/28 08:04:06;;;;;;;12.68;3.50;;;;;;;;;;5010153;28;20264;-56
2024/01/28 08:06:32;;;;;;;17.73;4.40;;;;;;;;;;5011792;28;20034;-57
2024/01/28 08:09:00;;;;;;;15.80;4.40;;;;;;;;;;5011585;28;20034;-59
2024/01/28 08:11:26;;;;;;;9.15;3.70;;;;;;;;;;5008780;28;20025;-59
2024/01/28 08:13:52;;;;;;;10.82;3.85;;;;;;;;;;5010196;28;20022;-60
2024/01/28 08:16:18;;;;;;;12.88;3.75;;;;;;;;;;5013835;28;20018;-56
2024/01/28 08:18:45;;;;;;;8.90;3.30;;;;;;;;;;5011476;28;20033;-56
2024/01/28 08:21:12;;;;;;;12.50;4.35;;;;;;;;;;5009006;28;20395;-57
2024/01/28 08:23:38;;;;;;;12.80;3.67;;;;;;;;;;5010967;28;20088;-58
2024/01/28 08:26:04;;;;;;;18.23;3.63;;;;;;;;;;5008848;28;20058;-59
2024/01/28 08:28:31;;;;;;;11.63;3.92;;;;;;;;;;5009685;28;20117;-57
2024/01/28 08:30:57;;;;;;;17.50;3.85;;;;;;;;;;5010015;28;20017;-58
2024/01/28 08:33:23;;;;;;;15.50;4.03;;;;;;;;;;5010022;28;20026;-58
2024/01/28 08:35:48;;;;;;;12.98;3.40;;;;;;;;;;5011440;28;20022;-59
2024/01/28 08:38:14;;;;;;;15.10;3.67;;;;;;;;;;5011123;28;20066;-59
2024/01/28 08:40:40;;;;;;;18.77;4.25;;;;;;;;;;5009147;28;20041;-59
2024/01/28 08:43:08;;;;;;;9.98;3.28;;;;;;;;;;5013830;28;20025;-58
2024/01/28 08:45:36;;;;;;;13.82;3.15;;;;;;;;;;5010849;28;20037;-60
2024/01/28 08:48:02;;;;;;;12.38;3.80;;;;;;;;;;5013552;28;20049;-57
2024/01/28 08:50:28;;;;;;;14.27;3.33;;;;;;;;;;5014395;28;20034;-58
2024/01/28 08:52:53;;;;;;;12.02;3.20;;;;;;;;;;5014440;28;20033;-57
2024/01/28 08:55:19;;;;;;;7.38;3.10;;;;;;;;;;5013914;28;20030;-58
2024/01/28 08:57:45;;;;;;;9.88;3.88;;;;;;;;;;5012001;28;20153;-60
2024/01/28 09:00:12;;;;;;;8.18;3.15;;;;;;;;;;5013817;28;20032;-60
2024/01/28 09:02:41;;;;;;;16.98;3.67;;;;;;;;;;5014570;28;20026;-58
2024/01/28 09:05:07;;;;;;;9.27;3.50;;;;;;;;;;5013605;28;20400;-57
2024/01/28 09:07:34;;;;;;;15.98;3.65;;;;;;;;;;5013570;28;20026;-59
2024/01/28 09:10:00;;;;;;;14.43;3.88;;;;;;;;;;5014065;28;20037;-60
2024/01/28 09:12:26;;;;;;;10.95;4.05;;;;;;;;;;5014174;28;20496;-61
2024/01/28 09:14:52;;;;;;;7.40;3.17;;;;;;;;;;5007136;28;20132;-60
2024/01/28 09:17:18;;;;;;;11.65;3.70;;;;;;;;;;5013349;28;20411;-59
2024/01/28 09:19:44;;;;;;;12.55;4.18;;;;;;;;;;5013656;28;20112;-55
2024/01/28 09:22:10;;;;;;;9.15;3.28;;;;;;;;;;5013552;28;20340;-58
2024/01/28 09:24:38;;;;;;;12.82;3.33;;;;;;;;;;5013865;28;20052;-56
2024/01/28 09:27:04;;;;;;;14.48;3.85;;;;;;;;;;5013570;28;20120;-59
2024/01/28 09:29:30;;;;;;;20.38;3.97;;;;;;;;;;5013250;28;20037;-59
2024/01/28 09:31:56;;;;;;;14.82;3.25;;;;;;;;;;5013574;28;20026;-57
2024/01/28 09:34:28;;;;;;;9.15;2.75;;;;;;;;;;5015304;28;20037;-59
2024/01/28 09:36:54;;;;;;;13.38;3.55;;;;;;;;;;5013133;28;20025;-58
2024/01/28 09:39:20;;;;;;;13.63;3.53;;;;;;;;;;5013031;28;20030;-56
2024/01/28 09:42:04;;;;;;;11.57;4.13;;;;;;;;;;5013288;28;20040;-59
2024/01/28 09:44:30;;;;;;;;;;;;;;;;;;5015556;28;20427;-59
2024/01/28 09:46:56;;;;;;;21.83;7.43;;;;;;;;;;5012303;28;20008;-60
2024/01/28 09:49:23;;;;;;;15.80;4.47;;;;;;;;;;5009081;28;20397;-59
2024/01/28 09:51:49;;;;;;;13.43;4.63;;;;;;;;;;5012940;28;20489;-56
2024/01/28 09:54:15;;;;;;;11.95;3.70;;;;;;;;;;5013238;28;20030;-55
2024/01/28 09:56:41;;;;;;;13.20;3.65;;;;;;;;;;5012676;28;20108;-58
2024/01/28 09:59:09;;;;;;;12.25;4.97;;;;;;;;;;5011022;28;20354;-59
2024/01/28 10:01:35;;;;;;;10.75;3.88;;;;;;;;;;5012006;28;20029;-59
2024/01/28 10:04:02;;;;;;;17.65;4.90;;;;;;;;;;5012608;28;20108;-57
2024/01/28 10:06:28;;;;;;;12.18;3.72;;;;;;;;;;5011178;28;20045;-58
2024/01/28 10:08:54;;;;;;;11.48;3.72;;;;;;;;;;5012081;28;20026;-58
2024/01/28 10:11:20;;;;;;;14.80;4.00;;;;;;;;;;5012084;28;20506;-59
2024/01/28 10:13:46;;;;;;;8.93;3.70;;;;;;;;;;5012440;28;20096;-59
2024/01/28 10:16:12;;;;;;;10.63;4.10;;;;;;;;;;5012063;28;20026;-55
2024/01/28 10:18:38;;;;;;;9.05;3.92;;;;;;;;;;5010352;28;20021;-57
2024/01/28 10:21:05;;;;;;;10.43;3.33;;;;;;;;;;5012248;28;20041;-60
2024/01/28 10:23:35;;;;;;;12.30;3.60;;;;;;;;;;5011893;28;20100;-56
2024/01/28 10:26:01;;;;;;;10.52;4.05;;;;;;;;;;5011794;28;20053;-57
2024/01/28 10:28:29;;;;;;;8.30;3.38;;;;;;;;;;5012526;28;20472;-56
2024/01/28 10:30:55;;;;;;;9.18;3.35;;;;;;;;;;5010804;28;20026;-60
2024/01/28 10:33:21;;;;;;;10.10;3.13;;;;;;;;;;5011638;28;20457;-59
2024/01/28 10:35:47;;;;;;;12.45;5.00;;;;;;;;;;5013621;28;20022;-60
2024/01/28 10:38:22;;;;;;;12.38;4.20;;;;;;;;;;5012297;28;20026;-57
2024/01/28 10:40:50;;;;;;;11.98;4.47;;;;;;;;;;5013009;28;20030;-60
2024/01/28 10:43:16;;;;;;;14.85;3.83;;;;;;;;;;5016160;28;20029;-59
2024/01/28 10:45:44;;;;;;;10.25;3.35;;;;;;;;;;5015054;28;20026;-59
2024/01/28 10:48:16;;;;;;;9.68;3.50;;;;;;;;;;5027171;28;20037;-59
2024/01/28 10:50:43;;;;;;;11.68;3.40;;;;;;;;;;5011752;28;20411;-60
2024/01/28 10:53:10;;;;;;;12.00;3.42;;;;;;;;;;5015272;28;20058;-59
2024/01/28 10:55:36;;;;;;;13.27;3.65;;;;;;;;;;5012393;28;20354;-58
2024/01/28 10:58:03;;;;;;;16.15;4.15;;;;;;;;;;5011973;28;20040;-58
2024/01/28 11:00:29;;;;;;;13.23;3.17;;;;;;;;;;5014593;28;20423;-56
2024/01/28 11:02:58;;;;;;;12.75;3.38;;;;;;;;;;5012685;28;20036;-56
2024/01/28 11:05:25;;;;;;;9.27;3.00;;;;;;;;;;5012349;28;20025;-57
2024/01/28 11:07:53;;;;;;;11.77;3.47;;;;;;;;;;5011925;28;20037;-56
2024/01/28 11:10:21;;;;;;;8.25;2.42;;;;;;;;;;5011392;28;20022;-58
2024/01/28 11:12:47;;;;;;;12.10;3.05;;;;;;;;;;5008645;28;20014;-56
2024/01/28 11:15:13;;;;;;;9.43;2.83;;;;;;;;;;5012810;28;20075;-56
2024/01/28 11:17:40;;;;;;;8.32;3.08;;;;;;;;;;5013305;28;20108;-58
2024/01/28 11:20:16;;;;;;;9.77;3.38;;;;;;;;;;5013172;28;20040;-56
2024/01/28 11:23:00;;;;;;;11.02;3.40;;;;;;;;;;5013072;28;20034;-56
2024/01/28 11:25:27;;;;;;;5.38;2.08;;;;;;;;;;5012588;28;20032;-58
2024/01/28 11:27:58;;;;;;;9.43;3.88;;;;;;;;;;5015136;28;20112;-56
2024/01/28 11:30:24;;;;;;;11.43;3.60;;;;;;;;;;5016528;28;20029;-57
2024/01/28 11:32:53;;;;;;;11.70;3.60;;;;;;;;;;5015844;28;20053;-57
2024/01/28 11:35:19;;;;;;;11.70;3.90;;;;;;;;;;5013135;28;20139;-58
2024/01/28 11:37:58;;;;;;;11.15;3.28;;;;;;;;;;5016731;28;20083;-59
2024/01/28 11:40:28;;;;;;;10.05;3.17;;;;;;;;;;5010727;28;20038;-59
2024/01/28 11:42:54;;;;;;;10.07;3.45;;;;;;;;;;5010752;28;20334;-58
2024/01/28 11:45:24;;;;;;;8.38;3.15;;;;;;;;;;5013270;28;20037;-59
2024/01/28 11:47:50;;;;;;;13.85;3.13;;;;;;;;;;5018822;28;20030;-57
2024/01/28 11:50:17;;;;;;;9.13;3.55;;;;;;;;;;5017925;28;20018;-58
2024/01/28 11:52:43;;;;;;;6.00;2.40;;;;;;;;;;5013334;28;20026;-56
2024/01/28 11:55:12;;;;;;;10.75;3.17;;;;;;;;;;5014243;28;20105;-58
2024/01/28 11:57:38;;;;;;;7.38;3.80;;;;;;;;;;5009019;28;20052;-56
2024/01/28 12:00:08;;;;;;;11.35;3.38;;;;;;;;;;5018917;28;20038;-57
2024/01/28 12:02:34;;;;;;;5.03;2.25;;;;;;;;;;5010811;28;20388;-58
2024/01/28 12:05:00;;;;;;;6.32;2.92;;;;;;;;;;5019618;28;20022;-58
2024/01/28 12:07:26;;;;;;;10.38;2.72;;;;;;;;;;5017363;28;20086;-59
2024/01/28 12:09:54;;;;;;;6.07;2.80;;;;;;;;;;5019389;28;20128;-59
2024/01/28 12:12:20;;;;;;;5.15;2.30;;;;;;;;;;5018176;28;20496;-59
2024/01/28 12:14:46;;;;;;;7.72;3.20;;;;;;;;;;5013288;28;20022;-60
2024/01/28 12:17:12;;;;;;;6.20;2.95;;;;;;;;;;5013992;28;20076;-58
2024/01/28 12:19:38;;;;;;;7.15;3.03;;;;;;;;;;5016892;28;20068;-58
2024/01/28 12:22:04;;;;;;;8.80;2.75;;;;;;;;;;5016272;28;20038;-60
2024/01/28 12:24:31;;;;;;;8.48;3.60;;;;;;;;;;5015931;28;20089;-59
2024/01/28 12:26:57;;;;;;;13.20;3.17;;;;;;;;;;5013420;28;20017;-60
2024/01/28 12:29:23;;;;;;;6.90;2.55;;;;;;;;;;5010315;28;20033;-58
2024/01/28 12:31:50;;;;;;;9.65;2.90;;;;;;;;;;5009629;28;20503;-57
2024/01/28 12:34:16;;;;;;;7.68;3.05;;;;;;;;;;5009435;28;20072;-57
2024/01/28 12:36:42;;;;;;;7.30;2.83;;;;;;;;;;5009692;28;20026;-58
2024/01/28 12:39:07;;;;;;;12.55;2.42;;;;;;;;;;5010974;28;20484;-59
2024/01/28 12:41:34;;;;;;;7.50;2.70;;;;;;;;;;5010460;28;20040;-57
2024/01/28 12:44:00;;;;;;;8.52;2.88;;;;;;;;;;5007941;28;20026;-58
2024/01/28 12:46:26;;;;;;;6.97;3.17;;;;;;;;;;5011212;28;20373;-56
2024/01/28 12:48:52;;;;;;;7.45;2.95;;;;;;;;;;5006472;28;20022;-60
2024/01/28 12:51:18;;;;;;;7.95;3.92;;;;;;;;;;5007761;28;20017;-58
2024/01/28 12:53:44;;;;;;;6.78;2.47;;;;;;;;;;5006323;28;20033;-59
2024/01/28 12:56:10;;;;;;;11.77;2.75;;;;;;;;;;5009963;28;20443;-59
2024/01/28 12:58:36;;;;;;;8.15;2.70;;;;;;;;;;5009598;28;20030;-58
2024/01/28 13:01:04;;;;;;;6.07;2.67;;;;;;;;;;5015779;28;20484;-58
2024/01/28 13:03:30;;;;;;;6.85;2.60;;;;;;;;;;5008527;28;20424;-55
2024/01/28 13:05:56;;;;;;;9.65;2.92;;;;;;;;;;5005299;28;20038;-58
2024/01/28 13:08:21;;;;;;;5.32;2.63;;;;;;;;;;5007354;28;20083;-57
2024/01/28 13:10:47;;;;;;;9.23;3.05;;;;;;;;;;5001772;28;20033;-58
2024/01/28 13:13:13;;;;;;;6.80;2.60;;;;;;;;;;5002582;28;20033;-58
2024/01/28 13:15:39;;;;;;;8.63;2.38;;;;;;;;;;5004622;28;20030;-57
2024/01/28 13:18:05;;;;;;;9.68;2.40;;;;;;;;;;5009776;28;20095;-58
2024/01/28 13:20:31;;;;;;;2.47;1.75;;;;;;;;;;5011928;28;20026;-58
2024/01/28 13:22:57;;;;;;;6.53;2.35;;;;;;;;;;5009656;28;20021;-57
2024/01/28 13:25:23;;;;;;;11.27;2.75;;;;;;;;;;5009117;28;20532;-58
2024/01/28 13:27:49;;;;;;;4.47;1.90;;;;;;;;;;5009152;28;20509;-59
2024/01/28 13:30:15;;;;;;;5.32;1.85;;;;;;;;;;5008930;28;20507;-57
2024/01/28 13:32:42;;;;;;;4.78;2.22;;;;;;;;;;5014070;28;20034;-59
2024/01/28 13:35:09;;;;;;;7.22;2.15;;;;;;;;;;5014408;28;20018;-60
2024/01/28 13:37:36;;;;;;;9.43;2.25;;;;;;;;;;5008144;28;20499;-57
2024/01/28 13:40:02;;;;;;;6.80;2.67;;;;;;;;;;5012938;28;20030;-59
2024/01/28 13:42:29;;;;;;;5.93;2.30;;;;;;;;;;5011904;28;20091;-57
2024/01/28 13:44:55;;;;;;;6.60;1.92;;;;;;;;;;5014634;28;20030;-58
2024/01/28 13:47:22;;;;;;;6.07;2.45;;;;;;;;;;5011876;28;20083;-59
2024/01/28 13:49:48;;;;;;;6.18;2.40;;;;;;;;;;5012751;28;20025;-57
2024/01/28 13:52:14;;;;;;;9.73;2.50;;;;;;;;;;5016633;28;20030;-59
2024/01/28 13:54:40;;;;;;;5.50;2.13;;;;;;;;;;5011990;28;20369;-58
2024/01/28 13:57:06;;;;;;;7.00;2.08;;;;;;;;;;5010505;28;20045;-56
2024/01/28 13:59:33;;;;;;;5.50;2.30;;;;;;;;;;5011302;28;20030;-59
2024/01/28 14:02:01;;;;;;;9.38;2.17;;;;;;;;;;5011452;28;20030;-58
2024/01/28 14:04:27;;;;;;;4.18;2.17;;;;;;;;;;5006941;28;20022;-58
2024/01/28 14:06:53;;;;;;;6.63;1.77;;;;;;;;;;5011701;28;20121;-59
2024/01/28 14:09:19;;;;;;;6.40;2.00;;;;;;;;;;5005114;28;20034;-59
2024/01/28 14:11:45;;;;;;;5.63;1.80;;;;;;;;;;5009673;28;20053;-58
2024/01/28 14:14:11;;;;;;;7.90;2.40;;;;;;;;;;5004524;28;20037;-59
2024/01/28 14:16:37;;;;;;;10.77;2.85;;;;;;;;;;5008375;28;20040;-56
2024/01/28 14:19:03;;;;;;;5.70;2.20;;;;;;;;;;5011856;28;20101;-58
2024/01/28 14:21:29;;;;;;;9.45;2.40;;;;;;;;;;5009048;28;20040;-58
2024/01/28 14:23:55;;;;;;;5.45;2.42;;;;;;;;;;5011462;28;20022;-58
2024/01/28 14:26:21;;;;;;;12.75;4.05;;;;;;;;;;5011778;28;20463;-59
2024/01/28 14:28:47;;;;;;;6.20;2.25;;;;;;;;;;5011191;28;20088;-59